sensor_id;sensor_type;location;lat;lon;timestamp;temperature;humidity
57564;DHT22;43400;45.926;6.724;2022-12-07T00:00:28;-1.10;99.90
57564;DHT22;43400;45.926;6.724;2022-12-07T00:03:00;-1.10;99.90
57564;DHT22;43400;45.926;6.724;2022-12-07T00:05:32;-1.10;99.90
57564;DHT22;43400;45.926;6.724;2022-12-07T00:08:04;-1.20;99.90
57564;DHT22;43400;45.926;6.724;2022-12-07T00:10:36;-1.20;99.90
57564;DHT22;43400;45.926;6.724;2022-12-07T00:13:08;-1.20;99.90
57564;DHT22;43400;45.926;6.724;2022-12-07T00:15:40;-1.20;99.90
57564;DHT22;43400;45.926;6.724;2022-12-07T00:18:11;-1.20;99.90
57564;DHT22;43400;45.926;6.724;2022-12-07T00:20:43;-1.30;99.90
57564;DHT22;43400;45.926;6.724;2022-12-07T00:23:15;-1.40;99.90
57564;DHT22;43400;45.926;6.724;2022-12-07T00:25:47;-1.30;99.90
57564;DHT22;43400;45.926;6.724;2022-12-07T00:28:19;-1.30;99.90
57564;DHT22;43400;45.926;6.724;2022-12-07T00:30:51;-1.30;99.90
57564;DHT22;43400;45.926;6.724;2022-12-07T00:33:24;-1.30;99.90
57564;DHT22;43400;45.926;6.724;2022-12-07T00:35:57;-1.40;99.90
57564;DHT22;43400;45.926;6.724;2022-12-07T00:38:32;-1.40;99.90
57564;DHT22;43400;45.926;6.724;2022-12-07T00:41:08;-1.30;99.90
57564;DHT22;43400;45.926;6.724;2022-12-07T00:43:42;-1.40;99.90
57564;DHT22;43400;45.926;6.724;2022-12-07T00:46:15;-1.40;99.90
57564;DHT22;43400;45.926;6.724;2022-12-07T00:48:48;-1.40;99.90
57564;DHT22;43400;45.926;6.724;2022-12-07T00:51:22;-1.50;99.90
57564;DHT22;43400;45.926;6.724;2022-12-07T00:53:54;-1.40;99.90
57564;DHT22;43400;45.926;6.724;2022-12-07T00:56:27;-1.40;99.90
57564;DHT22;43400;45.926;6.724;2022-12-07T00:59:03;-1.30;99.90
57564;DHT22;43400;45.926;6.724;2022-12-07T01:01:36;-1.30;99.90
57564;DHT22;43400;45.926;6.724;2022-12-07T01:04:08;-1.30;99.90
57564;DHT22;43400;45.926;6.724;2022-12-07T01:06:40;-1.20;99.90
57564;DHT22;43400;45.926;6.724;2022-12-07T01:09:12;-1.20;99.90
57564;DHT22;43400;45.926;6.724;2022-12-07T01:11:44;-1.20;99.90
57564;DHT22;43400;45.926;6.724;2022-12-07T01:14:15;-1.20;99.90
57564;DHT22;43400;45.926;6.724;2022-12-07T01:16:48;-1.20;99.90
57564;DHT22;43400;45.926;6.724;2022-12-07T01:19:20;-1.20;99.90
57564;DHT22;43400;45.926;6.724;2022-12-07T01:21:52;-1.20;99.90
57564;DHT22;43400;45.926;6.724;2022-12-07T01:24:24;-1.20;99.90
57564;DHT22;43400;45.926;6.724;2022-12-07T01:26:56;-1.10;99.90
57564;DHT22;43400;45.926;6.724;2022-12-07T01:29:28;-1.20;99.90
57564;DHT22;43400;45.926;6.724;2022-12-07T01:31:59;-1.10;99.90
57564;DHT22;43400;45.926;6.724;2022-12-07T01:34:31;-1.10;99.90
57564;DHT22;43400;45.926;6.724;2022-12-07T01:37:03;-1.00;99.90
57564;DHT22;43400;45.926;6.724;2022-12-07T01:39:34;-1.00;99.90
57564;DHT22;43400;45.926;6.724;2022-12-07T01:42:11;-1.00;99.90
57564;DHT22;43400;45.926;6.724;2022-12-07T01:48:03;-0.90;99.90
57564;DHT22;43400;45.926;6.724;2022-12-07T01:50:37;-0.80;99.90
57564;DHT22;43400;45.926;6.724;2022-12-07T01:53:10;-0.70;99.90
57564;DHT22;43400;45.926;6.724;2022-12-07T01:55:45;-0.70;99.90
57564;DHT22;43400;45.926;6.724;2022-12-07T01:58:19;-0.60;99.90
57564;DHT22;43400;45.926;6.724;2022-12-07T02:00:51;-0.60;99.90
57564;DHT22;43400;45.926;6.724;2022-12-07T02:03:42;-0.60;99.90
57564;DHT22;43400;45.926;6.724;2022-12-07T02:06:19;-0.60;99.90
57564;DHT22;43400;45.926;6.724;2022-12-07T02:08:52;-0.50;99.90
57564;DHT22;43400;45.926;6.724;2022-12-07T02:11:24;-0.40;99.90
57564;DHT22;43400;45.926;6.724;2022-12-07T02:13:57;-0.40;99.90
57564;DHT22;43400;45.926;6.724;2022-12-07T02:30:58;-0.10;99.90
57564;DHT22;43400;45.926;6.724;2022-12-07T02:33:48;-0.10;99.90
57564;DHT22;43400;45.926;6.724;2022-12-07T02:36:28;-0.10;99.90
57564;DHT22;43400;45.926;6.724;2022-12-07T02:39:11;-0.10;99.90
57564;DHT22;43400;45.926;6.724;2022-12-07T02:41:52;-0.10;99.90
57564;DHT22;43400;45.926;6.724;2022-12-07T02:44:27;0.00;99.90
57564;DHT22;43400;45.926;6.724;2022-12-07T02:47:06;0.00;99.90
57564;DHT22;43400;45.926;6.724;2022-12-07T02:49:39;0.00;99.90
57564;DHT22;43400;45.926;6.724;2022-12-07T02:52:11;0.00;99.90
57564;DHT22;43400;45.926;6.724;2022-12-07T02:54:43;0.10;99.90
57564;DHT22;43400;45.926;6.724;2022-12-07T03:00:23;0.20;99.90
57564;DHT22;43400;45.926;6.724;2022-12-07T03:02:59;0.20;99.90
57564;DHT22;43400;45.926;6.724;2022-12-07T03:05:49;0.30;99.90
57564;DHT22;43400;45.926;6.724;2022-12-07T03:11:37;0.30;99.90
57564;DHT22;43400;45.926;6.724;2022-12-07T03:14:18;0.30;99.90
57564;DHT22;43400;45.926;6.724;2022-12-07T03:17:01;0.30;99.90
57564;DHT22;43400;45.926;6.724;2022-12-07T03:19:37;0.30;99.90
57564;DHT22;43400;45.926;6.724;2022-12-07T03:22:12;0.40;99.90
57564;DHT22;43400;45.926;6.724;2022-12-07T03:24:55;0.30;99.90
57564;DHT22;43400;45.926;6.724;2022-12-07T03:27:37;0.30;99.90
57564;DHT22;43400;45.926;6.724;2022-12-07T03:30:17;0.40;99.90
57564;DHT22;43400;45.926;6.724;2022-12-07T03:33:22;0.40;99.90
57564;DHT22;43400;45.926;6.724;2022-12-07T03:36:08;0.40;99.90
57564;DHT22;43400;45.926;6.724;2022-12-07T03:38:48;0.40;99.90
57564;DHT22;43400;45.926;6.724;2022-12-07T03:41:31;0.50;99.90
57564;DHT22;43400;45.926;6.724;2022-12-07T03:44:04;0.50;99.90
57564;DHT22;43400;45.926;6.724;2022-12-07T03:55:20;0.60;99.90
57564;DHT22;43400;45.926;6.724;2022-12-07T03:58:00;0.60;99.90
57564;DHT22;43400;45.926;6.724;2022-12-07T04:00:32;0.70;99.90
57564;DHT22;43400;45.926;6.724;2022-12-07T04:03:04;0.70;99.90
57564;DHT22;43400;45.926;6.724;2022-12-07T04:05:36;0.70;99.90
57564;DHT22;43400;45.926;6.724;2022-12-07T04:08:08;0.70;99.90
57564;DHT22;43400;45.926;6.724;2022-12-07T04:10:40;0.60;99.90
57564;DHT22;43400;45.926;6.724;2022-12-07T04:13:11;0.60;99.90
57564;DHT22;43400;45.926;6.724;2022-12-07T04:15:43;0.60;99.90
57564;DHT22;43400;45.926;6.724;2022-12-07T04:18:15;0.60;99.90
57564;DHT22;43400;45.926;6.724;2022-12-07T04:20:46;0.50;99.90
57564;DHT22;43400;45.926;6.724;2022-12-07T04:23:18;0.60;99.90
57564;DHT22;43400;45.926;6.724;2022-12-07T04:25:49;0.60;99.90
57564;DHT22;43400;45.926;6.724;2022-12-07T04:28:21;0.60;99.90
57564;DHT22;43400;45.926;6.724;2022-12-07T04:30:52;0.70;99.90
57564;DHT22;43400;45.926;6.724;2022-12-07T04:33:24;0.70;99.90
57564;DHT22;43400;45.926;6.724;2022-12-07T04:35:56;0.70;99.90
57564;DHT22;43400;45.926;6.724;2022-12-07T04:38:27;0.70;99.90
57564;DHT22;43400;45.926;6.724;2022-12-07T04:41:05;0.70;99.90
57564;DHT22;43400;45.926;6.724;2022-12-07T04:43:37;0.70;99.90
57564;DHT22;43400;45.926;6.724;2022-12-07T04:46:09;0.70;99.90
57564;DHT22;43400;45.926;6.724;2022-12-07T04:48:41;0.80;99.90
57564;DHT22;43400;45.926;6.724;2022-12-07T04:51:14;0.80;99.90
57564;DHT22;43400;45.926;6.724;2022-12-07T04:53:47;0.70;99.90
57564;DHT22;43400;45.926;6.724;2022-12-07T04:56:19;0.60;99.90
57564;DHT22;43400;45.926;6.724;2022-12-07T04:58:53;0.60;99.90
57564;DHT22;43400;45.926;6.724;2022-12-07T05:01:25;0.70;99.90
57564;DHT22;43400;45.926;6.724;2022-12-07T05:03:56;0.70;99.90
57564;DHT22;43400;45.926;6.724;2022-12-07T05:06:28;0.70;99.90
57564;DHT22;43400;45.926;6.724;2022-12-07T05:09:00;0.80;99.90
57564;DHT22;43400;45.926;6.724;2022-12-07T05:11:32;0.80;99.90
57564;DHT22;43400;45.926;6.724;2022-12-07T05:14:18;0.80;99.90
57564;DHT22;43400;45.926;6.724;2022-12-07T05:16:51;0.80;99.90
57564;DHT22;43400;45.926;6.724;2022-12-07T05:19:22;0.80;99.90
57564;DHT22;43400;45.926;6.724;2022-12-07T05:21:54;0.80;99.90
57564;DHT22;43400;45.926;6.724;2022-12-07T05:24:25;0.80;99.90
57564;DHT22;43400;45.926;6.724;2022-12-07T05:26:57;0.80;99.90
57564;DHT22;43400;45.926;6.724;2022-12-07T05:29:28;0.80;99.90
57564;DHT22;43400;45.926;6.724;2022-12-07T05:32:00;0.80;99.60
57564;DHT22;43400;45.926;6.724;2022-12-07T05:34:32;0.80;99.90
57564;DHT22;43400;45.926;6.724;2022-12-07T05:37:03;0.80;99.90
57564;DHT22;43400;45.926;6.724;2022-12-07T05:39:35;0.90;99.80
57564;DHT22;43400;45.926;6.724;2022-12-07T05:42:09;0.90;99.40
57564;DHT22;43400;45.926;6.724;2022-12-07T05:44:42;0.80;99.50
57564;DHT22;43400;45.926;6.724;2022-12-07T05:47:15;0.70;99.70
57564;DHT22;43400;45.926;6.724;2022-12-07T05:49:47;0.70;99.90
57564;DHT22;43400;45.926;6.724;2022-12-07T05:52:18;0.70;99.90
57564;DHT22;43400;45.926;6.724;2022-12-07T05:54:50;0.70;99.90
57564;DHT22;43400;45.926;6.724;2022-12-07T05:57:22;0.60;99.90
57564;DHT22;43400;45.926;6.724;2022-12-07T05:59:53;0.60;99.90
57564;DHT22;43400;45.926;6.724;2022-12-07T06:02:25;0.70;99.90
57564;DHT22;43400;45.926;6.724;2022-12-07T06:04:56;0.70;99.90
57564;DHT22;43400;45.926;6.724;2022-12-07T06:07:28;0.80;99.90
57564;DHT22;43400;45.926;6.724;2022-12-07T06:09:59;0.80;99.90
57564;DHT22;43400;45.926;6.724;2022-12-07T06:12:31;0.80;99.90
57564;DHT22;43400;45.926;6.724;2022-12-07T06:15:03;0.80;99.90
57564;DHT22;43400;45.926;6.724;2022-12-07T06:17:35;0.70;99.90
57564;DHT22;43400;45.926;6.724;2022-12-07T06:20:07;0.60;99.90
57564;DHT22;43400;45.926;6.724;2022-12-07T06:22:38;0.60;99.90
57564;DHT22;43400;45.926;6.724;2022-12-07T06:25:10;0.60;99.90
57564;DHT22;43400;45.926;6.724;2022-12-07T06:27:41;0.60;99.90
57564;DHT22;43400;45.926;6.724;2022-12-07T06:30:13;0.60;99.90
57564;DHT22;43400;45.926;6.724;2022-12-07T06:32:45;0.70;99.90
57564;DHT22;43400;45.926;6.724;2022-12-07T06:35:16;0.60;99.90
57564;DHT22;43400;45.926;6.724;2022-12-07T06:37:48;0.60;99.90
57564;DHT22;43400;45.926;6.724;2022-12-07T06:40:19;0.60;99.90
57564;DHT22;43400;45.926;6.724;2022-12-07T06:42:51;0.50;99.90
57564;DHT22;43400;45.926;6.724;2022-12-07T06:45:23;0.50;99.90
57564;DHT22;43400;45.926;6.724;2022-12-07T06:47:54;0.40;99.90
57564;DHT22;43400;45.926;6.724;2022-12-07T06:50:26;0.50;99.90
57564;DHT22;43400;45.926;6.724;2022-12-07T06:52:58;0.50;99.40
57564;DHT22;43400;45.926;6.724;2022-12-07T06:55:30;0.40;99.60
57564;DHT22;43400;45.926;6.724;2022-12-07T06:58:01;0.50;99.90
57564;DHT22;43400;45.926;6.724;2022-12-07T07:00:33;0.50;99.90
57564;DHT22;43400;45.926;6.724;2022-12-07T07:03:04;0.50;99.80
57564;DHT22;43400;45.926;6.724;2022-12-07T07:05:36;0.50;99.90
57564;DHT22;43400;45.926;6.724;2022-12-07T07:08:08;0.40;99.80
57564;DHT22;43400;45.926;6.724;2022-12-07T07:10:40;0.40;99.50
57564;DHT22;43400;45.926;6.724;2022-12-07T07:13:12;0.40;99.90
57564;DHT22;43400;45.926;6.724;2022-12-07T07:15:44;0.30;99.90
57564;DHT22;43400;45.926;6.724;2022-12-07T07:18:16;0.40;99.70
57564;DHT22;43400;45.926;6.724;2022-12-07T07:20:47;0.30;99.90
57564;DHT22;43400;45.926;6.724;2022-12-07T07:23:20;0.40;99.90
57564;DHT22;43400;45.926;6.724;2022-12-07T07:25:52;0.50;99.90
57564;DHT22;43400;45.926;6.724;2022-12-07T07:28:24;0.40;99.90
57564;DHT22;43400;45.926;6.724;2022-12-07T07:30:56;0.50;99.90
57564;DHT22;43400;45.926;6.724;2022-12-07T07:33:27;0.50;99.90
57564;DHT22;43400;45.926;6.724;2022-12-07T07:35:59;0.30;99.30
57564;DHT22;43400;45.926;6.724;2022-12-07T07:38:30;0.20;99.70
57564;DHT22;43400;45.926;6.724;2022-12-07T07:41:02;0.20;99.90
57564;DHT22;43400;45.926;6.724;2022-12-07T07:43:33;0.10;99.90
57564;DHT22;43400;45.926;6.724;2022-12-07T07:46:05;0.10;99.90
57564;DHT22;43400;45.926;6.724;2022-12-07T07:48:37;0.10;99.90
57564;DHT22;43400;45.926;6.724;2022-12-07T07:51:09;0.20;99.90
57564;DHT22;43400;45.926;6.724;2022-12-07T07:53:40;0.20;99.90
57564;DHT22;43400;45.926;6.724;2022-12-07T07:56:12;0.20;99.90
57564;DHT22;43400;45.926;6.724;2022-12-07T07:58:43;0.20;99.90
57564;DHT22;43400;45.926;6.724;2022-12-07T08:01:15;0.20;99.90
57564;DHT22;43400;45.926;6.724;2022-12-07T08:03:47;0.20;99.90
57564;DHT22;43400;45.926;6.724;2022-12-07T08:06:19;0.30;99.90
57564;DHT22;43400;45.926;6.724;2022-12-07T08:08:50;0.20;99.90
57564;DHT22;43400;45.926;6.724;2022-12-07T08:11:22;0.10;99.90
57564;DHT22;43400;45.926;6.724;2022-12-07T08:13:54;0.20;99.90
57564;DHT22;43400;45.926;6.724;2022-12-07T08:16:26;0.20;99.90
57564;DHT22;43400;45.926;6.724;2022-12-07T08:18:57;0.30;99.90
57564;DHT22;43400;45.926;6.724;2022-12-07T08:21:29;0.30;99.90
57564;DHT22;43400;45.926;6.724;2022-12-07T08:24:00;0.30;99.90
57564;DHT22;43400;45.926;6.724;2022-12-07T08:26:32;0.20;99.90
57564;DHT22;43400;45.926;6.724;2022-12-07T08:29:03;0.30;99.90
57564;DHT22;43400;45.926;6.724;2022-12-07T08:31:35;0.20;99.60
57564;DHT22;43400;45.926;6.724;2022-12-07T08:34:07;0.10;99.40
57564;DHT22;43400;45.926;6.724;2022-12-07T08:36:38;0.00;99.70
57564;DHT22;43400;45.926;6.724;2022-12-07T08:39:10;0.00;99.90
57564;DHT22;43400;45.926;6.724;2022-12-07T08:41:41;0.00;99.90
57564;DHT22;43400;45.926;6.724;2022-12-07T08:44:13;0.00;99.90
57564;DHT22;43400;45.926;6.724;2022-12-07T08:46:49;0.10;99.90
57564;DHT22;43400;45.926;6.724;2022-12-07T08:49:33;0.10;99.90
57564;DHT22;43400;45.926;6.724;2022-12-07T08:52:06;0.20;99.90
57564;DHT22;43400;45.926;6.724;2022-12-07T08:54:39;0.30;99.70
57564;DHT22;43400;45.926;6.724;2022-12-07T08:57:11;0.40;99.40
57564;DHT22;43400;45.926;6.724;2022-12-07T08:59:43;0.50;99.30
57564;DHT22;43400;45.926;6.724;2022-12-07T09:02:15;0.50;98.70
57564;DHT22;43400;45.926;6.724;2022-12-07T09:04:46;0.60;98.70
57564;DHT22;43400;45.926;6.724;2022-12-07T09:07:18;0.60;98.60
57564;DHT22;43400;45.926;6.724;2022-12-07T09:09:49;0.70;98.10
57564;DHT22;43400;45.926;6.724;2022-12-07T09:12:21;0.80;98.50
57564;DHT22;43400;45.926;6.724;2022-12-07T09:14:52;0.90;98.10
57564;DHT22;43400;45.926;6.724;2022-12-07T09:17:24;0.90;97.90
57564;DHT22;43400;45.926;6.724;2022-12-07T09:19:56;1.00;97.60
57564;DHT22;43400;45.926;6.724;2022-12-07T09:22:30;1.00;97.00
57564;DHT22;43400;45.926;6.724;2022-12-07T09:25:03;0.90;96.60
57564;DHT22;43400;45.926;6.724;2022-12-07T09:27:35;0.90;96.80
57564;DHT22;43400;45.926;6.724;2022-12-07T09:30:07;1.00;96.60
57564;DHT22;43400;45.926;6.724;2022-12-07T09:32:39;1.00;96.00
57564;DHT22;43400;45.926;6.724;2022-12-07T09:35:10;1.10;95.80
57564;DHT22;43400;45.926;6.724;2022-12-07T09:37:42;1.00;95.80
57564;DHT22;43400;45.926;6.724;2022-12-07T09:40:14;1.20;96.10
57564;DHT22;43400;45.926;6.724;2022-12-07T09:42:49;1.20;95.70
57564;DHT22;43400;45.926;6.724;2022-12-07T09:45:30;1.20;95.60
57564;DHT22;43400;45.926;6.724;2022-12-07T09:48:04;1.30;96.20
57564;DHT22;43400;45.926;6.724;2022-12-07T09:50:36;1.40;96.00
57564;DHT22;43400;45.926;6.724;2022-12-07T09:53:20;1.50;96.10
57564;DHT22;43400;45.926;6.724;2022-12-07T09:55:54;1.50;96.20
57564;DHT22;43400;45.926;6.724;2022-12-07T09:58:28;1.50;95.70
57564;DHT22;43400;45.926;6.724;2022-12-07T10:01:14;1.40;95.00
57564;DHT22;43400;45.926;6.724;2022-12-07T10:03:52;1.40;94.80
57564;DHT22;43400;45.926;6.724;2022-12-07T10:06:24;1.40;94.80
57564;DHT22;43400;45.926;6.724;2022-12-07T10:08:56;1.60;94.80
57564;DHT22;43400;45.926;6.724;2022-12-07T10:11:27;1.50;94.70
57564;DHT22;43400;45.926;6.724;2022-12-07T10:14:11;1.60;95.10
57564;DHT22;43400;45.926;6.724;2022-12-07T10:16:43;1.70;94.80
57564;DHT22;43400;45.926;6.724;2022-12-07T10:24:34;1.80;93.90
57564;DHT22;43400;45.926;6.724;2022-12-07T10:27:21;1.80;93.60
57564;DHT22;43400;45.926;6.724;2022-12-07T10:29:53;1.80;93.30
57564;DHT22;43400;45.926;6.724;2022-12-07T10:32:32;1.80;92.90
57564;DHT22;43400;45.926;6.724;2022-12-07T10:35:23;1.80;93.50
57564;DHT22;43400;45.926;6.724;2022-12-07T10:37:58;1.70;93.10
57564;DHT22;43400;45.926;6.724;2022-12-07T10:40:35;1.70;92.80
57564;DHT22;43400;45.926;6.724;2022-12-07T11:03:37;2.00;92.50
57564;DHT22;43400;45.926;6.724;2022-12-07T11:06:14;2.00;92.40
57564;DHT22;43400;45.926;6.724;2022-12-07T11:22:03;2.50;92.50
57564;DHT22;43400;45.926;6.724;2022-12-07T11:25:24;2.50;92.70
57564;DHT22;43400;45.926;6.724;2022-12-07T11:27:44;2.50;92.80
57564;DHT22;43400;45.926;6.724;2022-12-07T11:30:21;2.60;92.70
57564;DHT22;43400;45.926;6.724;2022-12-07T11:33:24;2.70;92.50
57564;DHT22;43400;45.926;6.724;2022-12-07T11:38:52;2.80;92.00
57564;DHT22;43400;45.926;6.724;2022-12-07T11:41:33;2.80;91.90
57564;DHT22;43400;45.926;6.724;2022-12-07T11:44:11;2.80;91.70
57564;DHT22;43400;45.926;6.724;2022-12-07T11:49:40;2.90;91.10
57564;DHT22;43400;45.926;6.724;2022-12-07T11:56:03;2.90;90.70
57564;DHT22;43400;45.926;6.724;2022-12-07T12:03:47;3.00;90.40
57564;DHT22;43400;45.926;6.724;2022-12-07T12:06:20;3.10;89.80
57564;DHT22;43400;45.926;6.724;2022-12-07T12:09:14;3.20;89.10
57564;DHT22;43400;45.926;6.724;2022-12-07T12:20:26;3.30;87.10
57564;DHT22;43400;45.926;6.724;2022-12-07T12:23:21;3.30;88.20
57564;DHT22;43400;45.926;6.724;2022-12-07T12:25:59;3.30;89.50
57564;DHT22;43400;45.926;6.724;2022-12-07T12:31:40;3.30;88.30
57564;DHT22;43400;45.926;6.724;2022-12-07T12:34:37;3.40;89.00
57564;DHT22;43400;45.926;6.724;2022-12-07T12:42:48;3.50;87.70
57564;DHT22;43400;45.926;6.724;2022-12-07T12:50:38;3.50;88.90
57564;DHT22;43400;45.926;6.724;2022-12-07T12:53:19;3.50;88.70
57564;DHT22;43400;45.926;6.724;2022-12-07T12:56:28;3.40;89.10
57564;DHT22;43400;45.926;6.724;2022-12-07T13:02:25;3.50;89.20
57564;DHT22;43400;45.926;6.724;2022-12-07T13:05:02;3.30;89.10
57564;DHT22;43400;45.926;6.724;2022-12-07T13:15:47;3.30;90.10
57564;DHT22;43400;45.926;6.724;2022-12-07T13:26:35;3.20;90.10
57564;DHT22;43400;45.926;6.724;2022-12-07T13:31:49;3.30;90.30
57564;DHT22;43400;45.926;6.724;2022-12-07T13:34:37;3.30;90.20
57564;DHT22;43400;45.926;6.724;2022-12-07T13:42:34;3.40;89.90
57564;DHT22;43400;45.926;6.724;2022-12-07T13:45:24;3.20;89.40
57564;DHT22;43400;45.926;6.724;2022-12-07T13:47:57;3.20;90.10
57564;DHT22;43400;45.926;6.724;2022-12-07T13:50:31;3.30;90.20
57564;DHT22;43400;45.926;6.724;2022-12-07T13:53:12;3.30;90.60
57564;DHT22;43400;45.926;6.724;2022-12-07T13:55:45;3.30;90.50
57564;DHT22;43400;45.926;6.724;2022-12-07T13:58:17;3.30;90.30
57564;DHT22;43400;45.926;6.724;2022-12-07T14:00:49;3.30;90.10
57564;DHT22;43400;45.926;6.724;2022-12-07T14:03:30;3.20;90.30
57564;DHT22;43400;45.926;6.724;2022-12-07T14:06:07;3.20;90.40
57564;DHT22;43400;45.926;6.724;2022-12-07T14:08:44;3.20;90.40
57564;DHT22;43400;45.926;6.724;2022-12-07T14:11:19;3.20;90.40
57564;DHT22;43400;45.926;6.724;2022-12-07T14:13:58;3.20;90.50
57564;DHT22;43400;45.926;6.724;2022-12-07T14:16:35;3.10;90.50
57564;DHT22;43400;45.926;6.724;2022-12-07T14:19:47;3.20;90.50
57564;DHT22;43400;45.926;6.724;2022-12-07T14:27:33;3.20;90.00
57564;DHT22;43400;45.926;6.724;2022-12-07T14:30:06;3.20;90.30
57564;DHT22;43400;45.926;6.724;2022-12-07T14:32:38;3.20;89.80
57564;DHT22;43400;45.926;6.724;2022-12-07T14:35:12;3.20;90.20
57564;DHT22;43400;45.926;6.724;2022-12-07T14:37:46;3.20;90.40
57564;DHT22;43400;45.926;6.724;2022-12-07T14:40:21;3.20;90.20
57564;DHT22;43400;45.926;6.724;2022-12-07T14:43:03;3.30;90.40
57564;DHT22;43400;45.926;6.724;2022-12-07T14:45:36;3.20;90.20
57564;DHT22;43400;45.926;6.724;2022-12-07T14:48:11;3.20;90.10
57564;DHT22;43400;45.926;6.724;2022-12-07T14:50:51;3.20;90.10
57564;DHT22;43400;45.926;6.724;2022-12-07T14:53:30;3.20;90.10
57564;DHT22;43400;45.926;6.724;2022-12-07T14:56:03;3.20;90.00
57564;DHT22;43400;45.926;6.724;2022-12-07T14:58:35;3.20;90.10
57564;DHT22;43400;45.926;6.724;2022-12-07T15:01:07;3.20;89.80
57564;DHT22;43400;45.926;6.724;2022-12-07T15:03:38;3.10;89.10
57564;DHT22;43400;45.926;6.724;2022-12-07T15:06:14;3.20;89.80
57564;DHT22;43400;45.926;6.724;2022-12-07T15:08:46;3.20;90.20
57564;DHT22;43400;45.926;6.724;2022-12-07T15:11:18;3.20;89.70
57564;DHT22;43400;45.926;6.724;2022-12-07T15:13:50;3.20;89.90
57564;DHT22;43400;45.926;6.724;2022-12-07T15:16:21;3.20;89.50
57564;DHT22;43400;45.926;6.724;2022-12-07T15:18:53;3.20;89.90
57564;DHT22;43400;45.926;6.724;2022-12-07T15:21:25;3.10;90.00
57564;DHT22;43400;45.926;6.724;2022-12-07T15:23:57;3.00;89.90
57564;DHT22;43400;45.926;6.724;2022-12-07T15:26:28;3.00;90.00
57564;DHT22;43400;45.926;6.724;2022-12-07T15:29:00;3.00;90.20
57564;DHT22;43400;45.926;6.724;2022-12-07T15:31:32;3.00;90.40
57564;DHT22;43400;45.926;6.724;2022-12-07T15:34:04;2.90;90.50
57564;DHT22;43400;45.926;6.724;2022-12-07T15:36:35;2.90;90.60
57564;DHT22;43400;45.926;6.724;2022-12-07T15:39:08;2.90;90.80
57564;DHT22;43400;45.926;6.724;2022-12-07T15:41:40;2.80;90.90
57564;DHT22;43400;45.926;6.724;2022-12-07T15:44:12;2.80;90.90
57564;DHT22;43400;45.926;6.724;2022-12-07T15:46:44;2.80;91.00
57564;DHT22;43400;45.926;6.724;2022-12-07T15:49:18;2.70;91.00
57564;DHT22;43400;45.926;6.724;2022-12-07T15:51:50;2.80;91.00
57564;DHT22;43400;45.926;6.724;2022-12-07T15:54:26;2.70;91.00
57564;DHT22;43400;45.926;6.724;2022-12-07T15:56:59;2.60;91.20
57564;DHT22;43400;45.926;6.724;2022-12-07T15:59:31;2.70;91.10
57564;DHT22;43400;45.926;6.724;2022-12-07T16:02:02;2.70;90.90
57564;DHT22;43400;45.926;6.724;2022-12-07T16:04:33;2.60;91.00
57564;DHT22;43400;45.926;6.724;2022-12-07T16:07:05;2.60;91.40
57564;DHT22;43400;45.926;6.724;2022-12-07T16:09:37;2.60;91.30
57564;DHT22;43400;45.926;6.724;2022-12-07T16:12:10;2.60;91.20
57564;DHT22;43400;45.926;6.724;2022-12-07T16:14:42;2.60;91.40
57564;DHT22;43400;45.926;6.724;2022-12-07T16:17:13;2.50;91.40
57564;DHT22;43400;45.926;6.724;2022-12-07T16:19:45;2.50;91.30
57564;DHT22;43400;45.926;6.724;2022-12-07T16:22:17;2.50;91.40
57564;DHT22;43400;45.926;6.724;2022-12-07T16:24:48;2.60;91.10
57564;DHT22;43400;45.926;6.724;2022-12-07T16:27:20;2.50;91.10
57564;DHT22;43400;45.926;6.724;2022-12-07T16:29:51;2.60;91.30
57564;DHT22;43400;45.926;6.724;2022-12-07T16:32:23;2.60;91.40
57564;DHT22;43400;45.926;6.724;2022-12-07T16:34:54;2.50;91.40
57564;DHT22;43400;45.926;6.724;2022-12-07T16:37:26;2.50;91.30
57564;DHT22;43400;45.926;6.724;2022-12-07T16:39:57;2.50;91.40
57564;DHT22;43400;45.926;6.724;2022-12-07T16:42:38;2.50;91.40
57564;DHT22;43400;45.926;6.724;2022-12-07T16:45:10;2.50;91.30
57564;DHT22;43400;45.926;6.724;2022-12-07T16:47:42;2.50;91.30
57564;DHT22;43400;45.926;6.724;2022-12-07T16:50:13;2.50;91.20
57564;DHT22;43400;45.926;6.724;2022-12-07T16:52:44;2.40;91.10
57564;DHT22;43400;45.926;6.724;2022-12-07T16:55:16;2.50;90.90
57564;DHT22;43400;45.926;6.724;2022-12-07T16:57:47;2.40;91.10
57564;DHT22;43400;45.926;6.724;2022-12-07T17:00:20;2.40;91.10
57564;DHT22;43400;45.926;6.724;2022-12-07T17:02:51;2.40;91.40
57564;DHT22;43400;45.926;6.724;2022-12-07T17:05:23;2.40;91.50
57564;DHT22;43400;45.926;6.724;2022-12-07T17:07:56;2.50;91.60
57564;DHT22;43400;45.926;6.724;2022-12-07T17:10:28;2.50;91.40
57564;DHT22;43400;45.926;6.724;2022-12-07T17:12:59;2.50;91.40
57564;DHT22;43400;45.926;6.724;2022-12-07T17:15:31;2.40;91.50
57564;DHT22;43400;45.926;6.724;2022-12-07T17:18:03;2.50;91.60
57564;DHT22;43400;45.926;6.724;2022-12-07T17:20:35;2.50;91.30
57564;DHT22;43400;45.926;6.724;2022-12-07T17:23:06;2.50;91.30
57564;DHT22;43400;45.926;6.724;2022-12-07T17:25:38;2.50;91.30
57564;DHT22;43400;45.926;6.724;2022-12-07T17:28:10;2.50;91.20
57564;DHT22;43400;45.926;6.724;2022-12-07T17:30:42;2.50;91.50
57564;DHT22;43400;45.926;6.724;2022-12-07T17:33:13;2.40;91.20
57564;DHT22;43400;45.926;6.724;2022-12-07T17:35:45;2.50;91.50
57564;DHT22;43400;45.926;6.724;2022-12-07T17:38:16;2.40;91.70
57564;DHT22;43400;45.926;6.724;2022-12-07T17:40:48;2.40;91.70
57564;DHT22;43400;45.926;6.724;2022-12-07T17:43:20;2.40;91.70
57564;DHT22;43400;45.926;6.724;2022-12-07T17:45:51;2.30;92.00
57564;DHT22;43400;45.926;6.724;2022-12-07T17:48:23;2.40;91.90
57564;DHT22;43400;45.926;6.724;2022-12-07T17:50:59;2.30;91.80
57564;DHT22;43400;45.926;6.724;2022-12-07T17:53:30;2.30;91.90
57564;DHT22;43400;45.926;6.724;2022-12-07T17:56:02;2.30;91.50
57564;DHT22;43400;45.926;6.724;2022-12-07T17:58:33;2.40;91.30
57564;DHT22;43400;45.926;6.724;2022-12-07T18:01:08;2.40;91.30
57564;DHT22;43400;45.926;6.724;2022-12-07T18:03:40;2.40;91.30
57564;DHT22;43400;45.926;6.724;2022-12-07T18:06:12;2.40;91.30
57564;DHT22;43400;45.926;6.724;2022-12-07T18:08:43;2.40;91.10
57564;DHT22;43400;45.926;6.724;2022-12-07T18:11:15;2.30;91.30
57564;DHT22;43400;45.926;6.724;2022-12-07T18:13:47;2.30;91.30
57564;DHT22;43400;45.926;6.724;2022-12-07T18:16:24;2.40;91.10
57564;DHT22;43400;45.926;6.724;2022-12-07T18:19:00;2.40;91.10
57564;DHT22;43400;45.926;6.724;2022-12-07T18:21:32;2.40;91.20
57564;DHT22;43400;45.926;6.724;2022-12-07T18:24:05;2.40;91.40
57564;DHT22;43400;45.926;6.724;2022-12-07T18:26:36;2.40;91.20
57564;DHT22;43400;45.926;6.724;2022-12-07T18:29:16;2.30;91.30
57564;DHT22;43400;45.926;6.724;2022-12-07T18:31:48;2.40;91.40
57564;DHT22;43400;45.926;6.724;2022-12-07T18:34:19;2.30;91.20
57564;DHT22;43400;45.926;6.724;2022-12-07T18:36:51;2.30;91.20
57564;DHT22;43400;45.926;6.724;2022-12-07T18:39:22;2.40;91.20
57564;DHT22;43400;45.926;6.724;2022-12-07T18:41:54;2.30;91.30
57564;DHT22;43400;45.926;6.724;2022-12-07T18:44:26;2.40;91.40
57564;DHT22;43400;45.926;6.724;2022-12-07T18:46:57;2.20;91.20
57564;DHT22;43400;45.926;6.724;2022-12-07T18:49:29;2.30;91.10